Carmel by the Sea, California
Current Conditions -  °F | °C
As of 12:54 AM on Thursday 23 Oct 2014 (Local Time) from KMRY Reporting Station
Clear Clear  
Wind Chill: 57°   Ceiling: Unl
Heat Index: 57°   Visibility: 10mi
Dew Point: 48°   Wind: 5mph
Humidity: 72%   Direction: 70°ENE
Pressure: 30.02"   Gusts: NA
Location:  36.5547°N, 121.916°W
Report Text: KMRY 230754Z AUTO 07004KT 10SM CLR 14/09 A3002 RMK AO2 SLP177 T01390089 402000100
Loading
Personal Weather Stations






























Interactive Weather Map
Tropical Storm Tracking
New forecast layout! Learn more

10-Day Weather Forecast

Advertisements
Track Severe Weather on mobile